sensor_id;sensor_type;location;lat;lon;timestamp;P1;durP1;ratioP1;P2;durP2;ratioP2
10461;SDS011;5278;42.656;23.374;2022-12-24T00:00:37;11.57;;;8.20;;
10461;SDS011;5278;42.656;23.374;2022-12-24T00:03:04;12.53;;;7.07;;
10461;SDS011;5278;42.656;23.374;2022-12-24T00:05:31;13.00;;;8.07;;
10461;SDS011;5278;42.656;23.374;2022-12-24T00:07:58;11.50;;;7.57;;
10461;SDS011;5278;42.656;23.374;2022-12-24T00:10:26;12.43;;;8.07;;
10461;SDS011;5278;42.656;23.374;2022-12-24T00:12:53;12.17;;;9.30;;
10461;SDS011;5278;42.656;23.374;2022-12-24T00:15:21;14.27;;;8.70;;
10461;SDS011;5278;42.656;23.374;2022-12-24T00:17:48;14.53;;;9.70;;
10461;SDS011;5278;42.656;23.374;2022-12-24T00:20:15;17.33;;;9.77;;
10461;SDS011;5278;42.656;23.374;2022-12-24T00:22:42;16.53;;;9.63;;
10461;SDS011;5278;42.656;23.374;2022-12-24T00:25:09;13.27;;;8.47;;
10461;SDS011;5278;42.656;23.374;2022-12-24T00:27:37;11.30;;;8.27;;
10461;SDS011;5278;42.656;23.374;2022-12-24T00:30:04;9.33;;;6.97;;
10461;SDS011;5278;42.656;23.374;2022-12-24T00:32:32;9.33;;;7.00;;
10461;SDS011;5278;42.656;23.374;2022-12-24T00:34:59;10.67;;;6.67;;
10461;SDS011;5278;42.656;23.374;2022-12-24T00:37:26;10.30;;;7.27;;
10461;SDS011;5278;42.656;23.374;2022-12-24T00:39:53;11.60;;;6.10;;
10461;SDS011;5278;42.656;23.374;2022-12-24T00:42:20;7.97;;;5.20;;
10461;SDS011;5278;42.656;23.374;2022-12-24T00:44:48;7.87;;;5.73;;
10461;SDS011;5278;42.656;23.374;2022-12-24T00:47:15;7.60;;;5.60;;
10461;SDS011;5278;42.656;23.374;2022-12-24T00:49:42;9.63;;;5.67;;
10461;SDS011;5278;42.656;23.374;2022-12-24T00:52:09;10.33;;;6.63;;
10461;SDS011;5278;42.656;23.374;2022-12-24T00:54:36;8.37;;;5.70;;
10461;SDS011;5278;42.656;23.374;2022-12-24T00:57:02;9.93;;;6.97;;
10461;SDS011;5278;42.656;23.374;2022-12-24T00:59:29;8.37;;;6.70;;
10461;SDS011;5278;42.656;23.374;2022-12-24T01:01:57;12.20;;;8.67;;
10461;SDS011;5278;42.656;23.374;2022-12-24T01:04:24;10.50;;;8.03;;
10461;SDS011;5278;42.656;23.374;2022-12-24T01:07:08;12.80;;;7.83;;
10461;SDS011;5278;42.656;23.374;2022-12-24T01:09:35;17.43;;;11.13;;
10461;SDS011;5278;42.656;23.374;2022-12-24T01:12:02;16.03;;;10.33;;
10461;SDS011;5278;42.656;23.374;2022-12-24T01:14:29;12.93;;;8.93;;
10461;SDS011;5278;42.656;23.374;2022-12-24T01:16:57;21.33;;;12.10;;
10461;SDS011;5278;42.656;23.374;2022-12-24T01:19:25;17.40;;;12.40;;
10461;SDS011;5278;42.656;23.374;2022-12-24T01:21:52;21.43;;;13.67;;
10461;SDS011;5278;42.656;23.374;2022-12-24T01:24:18;20.63;;;13.10;;
10461;SDS011;5278;42.656;23.374;2022-12-24T01:26:45;21.27;;;13.07;;
10461;SDS011;5278;42.656;23.374;2022-12-24T01:29:12;23.30;;;13.07;;
10461;SDS011;5278;42.656;23.374;2022-12-24T01:31:39;21.10;;;13.57;;
10461;SDS011;5278;42.656;23.374;2022-12-24T01:34:08;21.13;;;12.90;;
10461;SDS011;5278;42.656;23.374;2022-12-24T01:36:34;18.97;;;11.90;;
10461;SDS011;5278;42.656;23.374;2022-12-24T01:39:01;18.47;;;11.70;;
10461;SDS011;5278;42.656;23.374;2022-12-24T01:41:29;16.23;;;10.53;;
10461;SDS011;5278;42.656;23.374;2022-12-24T01:44:15;17.60;;;11.37;;
10461;SDS011;5278;42.656;23.374;2022-12-24T01:46:46;20.23;;;11.57;;
10461;SDS011;5278;42.656;23.374;2022-12-24T01:49:16;19.43;;;11.70;;
10461;SDS011;5278;42.656;23.374;2022-12-24T01:51:44;18.97;;;12.90;;
10461;SDS011;5278;42.656;23.374;2022-12-24T01:54:15;18.47;;;12.60;;
10461;SDS011;5278;42.656;23.374;2022-12-24T01:56:45;21.80;;;12.90;;
10461;SDS011;5278;42.656;23.374;2022-12-24T01:59:16;20.13;;;12.03;;
10461;SDS011;5278;42.656;23.374;2022-12-24T02:01:45;18.93;;;12.87;;
10461;SDS011;5278;42.656;23.374;2022-12-24T02:04:18;20.50;;;11.80;;
10461;SDS011;5278;42.656;23.374;2022-12-24T02:06:53;18.17;;;12.10;;
10461;SDS011;5278;42.656;23.374;2022-12-24T02:09:20;17.43;;;11.00;;
10461;SDS011;5278;42.656;23.374;2022-12-24T02:11:47;19.37;;;12.50;;
10461;SDS011;5278;42.656;23.374;2022-12-24T02:14:15;16.50;;;11.70;;
10461;SDS011;5278;42.656;23.374;2022-12-24T02:16:44;16.83;;;11.70;;
10461;SDS011;5278;42.656;23.374;2022-12-24T02:22:20;20.17;;;11.63;;
10461;SDS011;5278;42.656;23.374;2022-12-24T02:25:01;20.43;;;10.50;;
10461;SDS011;5278;42.656;23.374;2022-12-24T02:27:43;19.23;;;12.10;;
10461;SDS011;5278;42.656;23.374;2022-12-24T02:30:22;17.00;;;11.70;;
10461;SDS011;5278;42.656;23.374;2022-12-24T02:32:55;17.17;;;11.40;;
10461;SDS011;5278;42.656;23.374;2022-12-24T02:35:36;17.60;;;12.77;;
10461;SDS011;5278;42.656;23.374;2022-12-24T02:38:11;16.07;;;11.37;;
10461;SDS011;5278;42.656;23.374;2022-12-24T02:40:43;18.00;;;11.80;;
10461;SDS011;5278;42.656;23.374;2022-12-24T02:43:18;20.07;;;11.10;;
10461;SDS011;5278;42.656;23.374;2022-12-24T02:45:51;19.90;;;12.40;;
10461;SDS011;5278;42.656;23.374;2022-12-24T02:48:21;19.43;;;12.30;;
10461;SDS011;5278;42.656;23.374;2022-12-24T02:51:03;21.47;;;11.93;;
10461;SDS011;5278;42.656;23.374;2022-12-24T02:53:32;20.73;;;12.37;;
10461;SDS011;5278;42.656;23.374;2022-12-24T02:56:23;19.80;;;13.50;;
10461;SDS011;5278;42.656;23.374;2022-12-24T02:59:13;20.70;;;13.77;;
10461;SDS011;5278;42.656;23.374;2022-12-24T03:02:08;19.80;;;11.90;;
10461;SDS011;5278;42.656;23.374;2022-12-24T03:04:47;18.90;;;13.10;;
10461;SDS011;5278;42.656;23.374;2022-12-24T03:07:24;23.20;;;14.03;;
10461;SDS011;5278;42.656;23.374;2022-12-24T03:09:56;21.43;;;12.33;;
10461;SDS011;5278;42.656;23.374;2022-12-24T03:12:33;19.83;;;12.87;;
10461;SDS011;5278;42.656;23.374;2022-12-24T03:15:04;22.00;;;14.30;;
10461;SDS011;5278;42.656;23.374;2022-12-24T03:17:39;17.60;;;12.40;;
10461;SDS011;5278;42.656;23.374;2022-12-24T03:20:09;14.83;;;12.33;;
10461;SDS011;5278;42.656;23.374;2022-12-24T03:22:38;19.33;;;12.47;;
10461;SDS011;5278;42.656;23.374;2022-12-24T03:25:05;18.90;;;12.53;;
10461;SDS011;5278;42.656;23.374;2022-12-24T03:27:35;19.00;;;11.90;;
10461;SDS011;5278;42.656;23.374;2022-12-24T03:30:04;18.17;;;12.87;;
10461;SDS011;5278;42.656;23.374;2022-12-24T03:32:36;20.03;;;13.20;;
10461;SDS011;5278;42.656;23.374;2022-12-24T03:35:06;22.63;;;14.83;;
10461;SDS011;5278;42.656;23.374;2022-12-24T03:37:35;23.93;;;15.67;;
10461;SDS011;5278;42.656;23.374;2022-12-24T03:40:03;25.10;;;15.40;;
10461;SDS011;5278;42.656;23.374;2022-12-24T03:42:33;21.20;;;13.87;;
10461;SDS011;5278;42.656;23.374;2022-12-24T03:45:00;18.07;;;13.60;;
10461;SDS011;5278;42.656;23.374;2022-12-24T03:47:27;21.80;;;14.00;;
10461;SDS011;5278;42.656;23.374;2022-12-24T03:49:53;19.53;;;12.10;;
10461;SDS011;5278;42.656;23.374;2022-12-24T03:52:22;19.23;;;13.47;;
10461;SDS011;5278;42.656;23.374;2022-12-24T03:54:49;22.23;;;13.83;;
10461;SDS011;5278;42.656;23.374;2022-12-24T03:57:15;19.07;;;13.17;;
10461;SDS011;5278;42.656;23.374;2022-12-24T03:59:42;20.20;;;13.20;;
10461;SDS011;5278;42.656;23.374;2022-12-24T04:02:09;20.90;;;13.73;;
10461;SDS011;5278;42.656;23.374;2022-12-24T04:04:37;22.50;;;13.97;;
10461;SDS011;5278;42.656;23.374;2022-12-24T04:07:05;25.73;;;15.63;;
10461;SDS011;5278;42.656;23.374;2022-12-24T04:09:34;20.97;;;13.10;;
10461;SDS011;5278;42.656;23.374;2022-12-24T04:12:00;15.17;;;11.00;;
10461;SDS011;5278;42.656;23.374;2022-12-24T04:14:28;22.03;;;13.43;;
10461;SDS011;5278;42.656;23.374;2022-12-24T04:16:54;23.50;;;14.23;;
10461;SDS011;5278;42.656;23.374;2022-12-24T04:19:21;19.30;;;12.93;;
10461;SDS011;5278;42.656;23.374;2022-12-24T04:21:50;23.73;;;13.63;;
10461;SDS011;5278;42.656;23.374;2022-12-24T04:24:18;19.60;;;12.33;;
10461;SDS011;5278;42.656;23.374;2022-12-24T04:26:46;17.73;;;12.30;;
10461;SDS011;5278;42.656;23.374;2022-12-24T04:29:13;17.37;;;12.17;;
10461;SDS011;5278;42.656;23.374;2022-12-24T04:31:40;19.70;;;12.23;;
10461;SDS011;5278;42.656;23.374;2022-12-24T04:34:08;15.93;;;11.27;;
10461;SDS011;5278;42.656;23.374;2022-12-24T04:36:36;17.17;;;11.73;;
10461;SDS011;5278;42.656;23.374;2022-12-24T04:39:03;18.40;;;11.13;;
10461;SDS011;5278;42.656;23.374;2022-12-24T04:41:30;17.27;;;11.20;;
10461;SDS011;5278;42.656;23.374;2022-12-24T04:43:58;17.10;;;10.90;;
10461;SDS011;5278;42.656;23.374;2022-12-24T04:46:26;16.33;;;10.90;;
10461;SDS011;5278;42.656;23.374;2022-12-24T04:48:55;19.13;;;10.87;;
10461;SDS011;5278;42.656;23.374;2022-12-24T04:51:23;16.33;;;10.30;;
10461;SDS011;5278;42.656;23.374;2022-12-24T04:53:51;15.13;;;11.13;;
10461;SDS011;5278;42.656;23.374;2022-12-24T04:56:19;17.97;;;11.63;;
10461;SDS011;5278;42.656;23.374;2022-12-24T04:58:47;17.87;;;12.03;;
10461;SDS011;5278;42.656;23.374;2022-12-24T05:01:17;18.93;;;11.83;;
10461;SDS011;5278;42.656;23.374;2022-12-24T05:03:45;16.67;;;11.17;;
10461;SDS011;5278;42.656;23.374;2022-12-24T05:06:13;18.40;;;11.57;;
10461;SDS011;5278;42.656;23.374;2022-12-24T05:08:42;16.67;;;11.97;;
10461;SDS011;5278;42.656;23.374;2022-12-24T05:11:10;19.17;;;11.23;;
10461;SDS011;5278;42.656;23.374;2022-12-24T05:13:39;17.73;;;11.67;;
10461;SDS011;5278;42.656;23.374;2022-12-24T05:16:08;18.13;;;12.03;;
10461;SDS011;5278;42.656;23.374;2022-12-24T05:18:36;19.20;;;11.23;;
10461;SDS011;5278;42.656;23.374;2022-12-24T05:21:06;17.77;;;11.13;;
10461;SDS011;5278;42.656;23.374;2022-12-24T05:23:35;18.37;;;11.07;;
10461;SDS011;5278;42.656;23.374;2022-12-24T05:26:29;17.00;;;12.43;;
10461;SDS011;5278;42.656;23.374;2022-12-24T05:28:59;18.17;;;12.03;;
10461;SDS011;5278;42.656;23.374;2022-12-24T05:31:27;16.67;;;11.37;;
10461;SDS011;5278;42.656;23.374;2022-12-24T05:33:57;17.93;;;11.50;;
10461;SDS011;5278;42.656;23.374;2022-12-24T05:36:24;20.40;;;12.30;;
10461;SDS011;5278;42.656;23.374;2022-12-24T05:38:52;16.30;;;11.23;;
10461;SDS011;5278;42.656;23.374;2022-12-24T05:41:19;19.13;;;13.03;;
10461;SDS011;5278;42.656;23.374;2022-12-24T05:43:47;18.43;;;12.33;;
10461;SDS011;5278;42.656;23.374;2022-12-24T05:46:15;18.73;;;12.40;;
10461;SDS011;5278;42.656;23.374;2022-12-24T05:48:44;18.43;;;12.23;;
10461;SDS011;5278;42.656;23.374;2022-12-24T05:51:13;20.87;;;12.23;;
10461;SDS011;5278;42.656;23.374;2022-12-24T05:53:42;17.40;;;12.63;;
10461;SDS011;5278;42.656;23.374;2022-12-24T05:56:10;15.77;;;11.57;;
10461;SDS011;5278;42.656;23.374;2022-12-24T05:58:40;37.97;;;21.53;;
10461;SDS011;5278;42.656;23.374;2022-12-24T06:01:08;26.63;;;15.73;;
10461;SDS011;5278;42.656;23.374;2022-12-24T06:03:36;31.07;;;17.83;;
10461;SDS011;5278;42.656;23.374;2022-12-24T06:06:04;28.67;;;17.47;;
10461;SDS011;5278;42.656;23.374;2022-12-24T06:08:33;24.53;;;15.50;;
10461;SDS011;5278;42.656;23.374;2022-12-24T06:11:02;22.37;;;14.40;;
10461;SDS011;5278;42.656;23.374;2022-12-24T06:13:31;20.63;;;14.70;;
10461;SDS011;5278;42.656;23.374;2022-12-24T06:16:01;24.50;;;15.50;;
10461;SDS011;5278;42.656;23.374;2022-12-24T06:18:30;26.73;;;16.33;;
10461;SDS011;5278;42.656;23.374;2022-12-24T06:20:58;37.53;;;23.43;;
10461;SDS011;5278;42.656;23.374;2022-12-24T06:23:27;46.13;;;28.97;;
10461;SDS011;5278;42.656;23.374;2022-12-24T06:25:56;59.17;;;36.27;;
10461;SDS011;5278;42.656;23.374;2022-12-24T06:28:25;62.27;;;38.40;;
10461;SDS011;5278;42.656;23.374;2022-12-24T06:30:52;67.17;;;41.77;;
10461;SDS011;5278;42.656;23.374;2022-12-24T06:33:19;58.13;;;38.77;;
10461;SDS011;5278;42.656;23.374;2022-12-24T06:35:46;63.70;;;38.00;;
10461;SDS011;5278;42.656;23.374;2022-12-24T06:38:14;56.73;;;33.93;;
10461;SDS011;5278;42.656;23.374;2022-12-24T06:40:41;44.30;;;29.87;;
10461;SDS011;5278;42.656;23.374;2022-12-24T06:43:12;62.63;;;38.87;;
10461;SDS011;5278;42.656;23.374;2022-12-24T06:45:43;59.80;;;39.60;;
10461;SDS011;5278;42.656;23.374;2022-12-24T06:48:11;57.03;;;38.97;;
10461;SDS011;5278;42.656;23.374;2022-12-24T06:50:38;67.47;;;44.27;;
10461;SDS011;5278;42.656;23.374;2022-12-24T06:53:05;70.67;;;48.93;;
10461;SDS011;5278;42.656;23.374;2022-12-24T06:55:32;73.63;;;49.60;;
10461;SDS011;5278;42.656;23.374;2022-12-24T06:57:59;81.13;;;49.23;;
10461;SDS011;5278;42.656;23.374;2022-12-24T07:00:28;85.13;;;50.50;;
10461;SDS011;5278;42.656;23.374;2022-12-24T07:02:55;73.07;;;45.10;;
10461;SDS011;5278;42.656;23.374;2022-12-24T07:05:22;62.43;;;38.37;;
10461;SDS011;5278;42.656;23.374;2022-12-24T07:07:49;50.33;;;27.93;;
10461;SDS011;5278;42.656;23.374;2022-12-24T07:10:16;42.43;;;28.97;;
10461;SDS011;5278;42.656;23.374;2022-12-24T07:12:45;38.23;;;26.40;;
10461;SDS011;5278;42.656;23.374;2022-12-24T07:15:12;35.27;;;23.17;;
10461;SDS011;5278;42.656;23.374;2022-12-24T07:17:47;26.93;;;18.57;;
10461;SDS011;5278;42.656;23.374;2022-12-24T07:20:14;22.67;;;15.70;;
10461;SDS011;5278;42.656;23.374;2022-12-24T07:22:41;27.10;;;20.13;;
10461;SDS011;5278;42.656;23.374;2022-12-24T07:25:09;20.73;;;16.37;;
10461;SDS011;5278;42.656;23.374;2022-12-24T07:27:36;20.77;;;13.70;;
10461;SDS011;5278;42.656;23.374;2022-12-24T07:30:04;19.67;;;13.30;;
10461;SDS011;5278;42.656;23.374;2022-12-24T07:32:33;16.73;;;11.60;;
10461;SDS011;5278;42.656;23.374;2022-12-24T07:35:02;14.83;;;10.50;;
10461;SDS011;5278;42.656;23.374;2022-12-24T07:37:29;14.10;;;10.40;;
10461;SDS011;5278;42.656;23.374;2022-12-24T07:39:57;15.07;;;10.20;;
10461;SDS011;5278;42.656;23.374;2022-12-24T07:42:24;18.50;;;12.43;;
10461;SDS011;5278;42.656;23.374;2022-12-24T07:44:50;17.90;;;12.70;;
10461;SDS011;5278;42.656;23.374;2022-12-24T07:47:17;18.90;;;11.97;;
10461;SDS011;5278;42.656;23.374;2022-12-24T07:49:44;17.57;;;13.10;;
10461;SDS011;5278;42.656;23.374;2022-12-24T07:52:12;15.00;;;11.23;;
10461;SDS011;5278;42.656;23.374;2022-12-24T07:54:39;13.57;;;9.83;;
10461;SDS011;5278;42.656;23.374;2022-12-24T07:57:06;13.87;;;9.90;;
10461;SDS011;5278;42.656;23.374;2022-12-24T07:59:33;16.10;;;11.23;;
10461;SDS011;5278;42.656;23.374;2022-12-24T08:02:00;16.03;;;11.03;;
10461;SDS011;5278;42.656;23.374;2022-12-24T08:04:29;17.63;;;12.13;;
10461;SDS011;5278;42.656;23.374;2022-12-24T08:06:56;16.67;;;11.93;;
10461;SDS011;5278;42.656;23.374;2022-12-24T08:09:25;21.63;;;15.07;;
10461;SDS011;5278;42.656;23.374;2022-12-24T08:11:52;29.87;;;22.07;;
10461;SDS011;5278;42.656;23.374;2022-12-24T08:14:21;34.77;;;20.73;;
10461;SDS011;5278;42.656;23.374;2022-12-24T08:16:48;36.43;;;24.43;;
10461;SDS011;5278;42.656;23.374;2022-12-24T08:19:15;29.80;;;21.93;;
10461;SDS011;5278;42.656;23.374;2022-12-24T08:21:42;29.53;;;21.53;;
10461;SDS011;5278;42.656;23.374;2022-12-24T08:24:09;33.47;;;21.80;;
10461;SDS011;5278;42.656;23.374;2022-12-24T08:26:38;32.60;;;23.30;;
10461;SDS011;5278;42.656;23.374;2022-12-24T08:29:06;40.37;;;23.40;;
10461;SDS011;5278;42.656;23.374;2022-12-24T08:31:33;28.03;;;20.20;;
10461;SDS011;5278;42.656;23.374;2022-12-24T08:34:01;30.30;;;20.63;;
10461;SDS011;5278;42.656;23.374;2022-12-24T08:36:28;29.80;;;19.47;;
10461;SDS011;5278;42.656;23.374;2022-12-24T08:38:55;31.83;;;19.80;;
10461;SDS011;5278;42.656;23.374;2022-12-24T08:41:22;28.50;;;21.37;;
10461;SDS011;5278;42.656;23.374;2022-12-24T08:43:51;28.50;;;20.33;;
10461;SDS011;5278;42.656;23.374;2022-12-24T08:46:17;29.67;;;21.43;;
10461;SDS011;5278;42.656;23.374;2022-12-24T08:48:44;30.57;;;21.63;;
10461;SDS011;5278;42.656;23.374;2022-12-24T08:51:15;24.87;;;16.77;;
10461;SDS011;5278;42.656;23.374;2022-12-24T08:53:43;30.47;;;18.67;;
10461;SDS011;5278;42.656;23.374;2022-12-24T08:56:11;23.37;;;15.90;;
10461;SDS011;5278;42.656;23.374;2022-12-24T08:58:41;25.40;;;17.20;;
10461;SDS011;5278;42.656;23.374;2022-12-24T09:01:11;28.00;;;17.50;;
10461;SDS011;5278;42.656;23.374;2022-12-24T09:03:39;24.83;;;17.40;;
10461;SDS011;5278;42.656;23.374;2022-12-24T09:06:06;29.53;;;18.90;;
10461;SDS011;5278;42.656;23.374;2022-12-24T09:08:33;32.60;;;22.20;;
10461;SDS011;5278;42.656;23.374;2022-12-24T09:11:04;39.03;;;22.27;;
10461;SDS011;5278;42.656;23.374;2022-12-24T09:13:32;34.07;;;22.23;;
10461;SDS011;5278;42.656;23.374;2022-12-24T09:15:59;33.13;;;23.73;;
10461;SDS011;5278;42.656;23.374;2022-12-24T09:18:27;30.33;;;22.57;;
10461;SDS011;5278;42.656;23.374;2022-12-24T09:20:57;36.27;;;22.57;;
10461;SDS011;5278;42.656;23.374;2022-12-24T09:23:26;31.77;;;22.63;;
10461;SDS011;5278;42.656;23.374;2022-12-24T09:25:54;27.60;;;21.60;;
10461;SDS011;5278;42.656;23.374;2022-12-24T09:28:21;32.97;;;22.23;;
10461;SDS011;5278;42.656;23.374;2022-12-24T09:30:55;36.03;;;21.70;;
10461;SDS011;5278;42.656;23.374;2022-12-24T09:33:22;32.13;;;21.87;;
10461;SDS011;5278;42.656;23.374;2022-12-24T09:35:52;34.10;;;20.63;;
10461;SDS011;5278;42.656;23.374;2022-12-24T09:38:20;29.67;;;20.90;;
10461;SDS011;5278;42.656;23.374;2022-12-24T09:40:47;31.40;;;20.83;;
10461;SDS011;5278;42.656;23.374;2022-12-24T09:43:16;30.43;;;21.30;;
10461;SDS011;5278;42.656;23.374;2022-12-24T09:45:45;35.90;;;21.77;;
10461;SDS011;5278;42.656;23.374;2022-12-24T09:48:18;32.60;;;21.23;;
10461;SDS011;5278;42.656;23.374;2022-12-24T09:50:49;31.67;;;21.63;;
10461;SDS011;5278;42.656;23.374;2022-12-24T09:53:23;36.47;;;25.57;;
10461;SDS011;5278;42.656;23.374;2022-12-24T09:55:56;53.23;;;32.43;;
10461;SDS011;5278;42.656;23.374;2022-12-24T09:58:26;53.67;;;35.33;;
10461;SDS011;5278;42.656;23.374;2022-12-24T10:00:56;50.83;;;35.03;;
10461;SDS011;5278;42.656;23.374;2022-12-24T10:03:23;53.93;;;35.40;;
10461;SDS011;5278;42.656;23.374;2022-12-24T10:05:56;53.70;;;33.37;;
10461;SDS011;5278;42.656;23.374;2022-12-24T10:08:33;52.00;;;33.07;;
10461;SDS011;5278;42.656;23.374;2022-12-24T10:11:10;53.13;;;33.63;;
10461;SDS011;5278;42.656;23.374;2022-12-24T10:13:50;54.50;;;33.67;;
10461;SDS011;5278;42.656;23.374;2022-12-24T10:16:31;47.40;;;31.17;;
10461;SDS011;5278;42.656;23.374;2022-12-24T10:19:08;48.97;;;31.17;;
10461;SDS011;5278;42.656;23.374;2022-12-24T10:21:45;45.70;;;30.60;;
10461;SDS011;5278;42.656;23.374;2022-12-24T10:24:20;47.23;;;30.73;;
10461;SDS011;5278;42.656;23.374;2022-12-24T10:26:52;42.17;;;28.40;;
10461;SDS011;5278;42.656;23.374;2022-12-24T10:29:26;42.13;;;27.70;;
10461;SDS011;5278;42.656;23.374;2022-12-24T10:31:58;40.80;;;26.57;;
10461;SDS011;5278;42.656;23.374;2022-12-24T10:34:41;43.43;;;26.30;;
10461;SDS011;5278;42.656;23.374;2022-12-24T10:37:11;44.23;;;28.40;;
10461;SDS011;5278;42.656;23.374;2022-12-24T10:39:42;40.30;;;27.77;;
10461;SDS011;5278;42.656;23.374;2022-12-24T10:42:09;42.03;;;26.80;;
10461;SDS011;5278;42.656;23.374;2022-12-24T10:44:40;40.47;;;25.83;;
10461;SDS011;5278;42.656;23.374;2022-12-24T10:47:07;39.73;;;26.07;;
10461;SDS011;5278;42.656;23.374;2022-12-24T10:49:38;39.37;;;26.07;;
10461;SDS011;5278;42.656;23.374;2022-12-24T10:52:10;42.00;;;26.13;;
10461;SDS011;5278;42.656;23.374;2022-12-24T10:57:33;36.50;;;23.13;;
10461;SDS011;5278;42.656;23.374;2022-12-24T11:00:01;34.90;;;22.77;;
10461;SDS011;5278;42.656;23.374;2022-12-24T11:02:28;39.37;;;22.57;;
10461;SDS011;5278;42.656;23.374;2022-12-24T11:04:58;36.33;;;24.80;;
10461;SDS011;5278;42.656;23.374;2022-12-24T11:07:27;39.00;;;22.93;;
10461;SDS011;5278;42.656;23.374;2022-12-24T11:09:56;38.53;;;24.30;;
10461;SDS011;5278;42.656;23.374;2022-12-24T11:12:24;38.97;;;24.83;;
10461;SDS011;5278;42.656;23.374;2022-12-24T11:15:00;35.47;;;23.27;;
10461;SDS011;5278;42.656;23.374;2022-12-24T11:17:29;37.77;;;25.03;;
10461;SDS011;5278;42.656;23.374;2022-12-24T11:19:56;33.47;;;23.40;;
10461;SDS011;5278;42.656;23.374;2022-12-24T11:22:24;36.57;;;23.73;;
10461;SDS011;5278;42.656;23.374;2022-12-24T11:24:56;39.57;;;24.57;;
10461;SDS011;5278;42.656;23.374;2022-12-24T11:27:28;42.77;;;25.77;;
10461;SDS011;5278;42.656;23.374;2022-12-24T11:32:47;37.37;;;25.27;;
10461;SDS011;5278;42.656;23.374;2022-12-24T11:35:17;39.37;;;26.40;;
10461;SDS011;5278;42.656;23.374;2022-12-24T11:37:48;36.57;;;25.23;;
10461;SDS011;5278;42.656;23.374;2022-12-24T11:40:18;37.40;;;25.27;;
10461;SDS011;5278;42.656;23.374;2022-12-24T11:42:47;38.30;;;24.60;;
10461;SDS011;5278;42.656;23.374;2022-12-24T11:45:19;39.83;;;24.93;;
10461;SDS011;5278;42.656;23.374;2022-12-24T11:47:48;34.87;;;24.47;;
10461;SDS011;5278;42.656;23.374;2022-12-24T11:50:24;39.80;;;25.30;;
10461;SDS011;5278;42.656;23.374;2022-12-24T11:52:55;34.27;;;24.73;;
10461;SDS011;5278;42.656;23.374;2022-12-24T11:55:28;32.93;;;22.97;;
10461;SDS011;5278;42.656;23.374;2022-12-24T11:58:03;34.63;;;24.50;;
10461;SDS011;5278;42.656;23.374;2022-12-24T12:00:39;32.13;;;24.23;;
10461;SDS011;5278;42.656;23.374;2022-12-24T12:03:11;33.47;;;23.57;;
10461;SDS011;5278;42.656;23.374;2022-12-24T12:05:49;32.50;;;23.73;;
10461;SDS011;5278;42.656;23.374;2022-12-24T12:08:22;36.53;;;23.30;;
10461;SDS011;5278;42.656;23.374;2022-12-24T12:10:50;32.63;;;23.10;;
10461;SDS011;5278;42.656;23.374;2022-12-24T12:13:21;28.90;;;19.87;;
10461;SDS011;5278;42.656;23.374;2022-12-24T12:16:00;30.77;;;21.07;;
10461;SDS011;5278;42.656;23.374;2022-12-24T12:18:34;29.57;;;20.67;;
10461;SDS011;5278;42.656;23.374;2022-12-24T12:21:05;30.13;;;20.23;;
10461;SDS011;5278;42.656;23.374;2022-12-24T12:23:40;33.77;;;23.27;;
10461;SDS011;5278;42.656;23.374;2022-12-24T12:26:14;34.80;;;23.00;;
10461;SDS011;5278;42.656;23.374;2022-12-24T12:28:48;29.67;;;22.90;;
10461;SDS011;5278;42.656;23.374;2022-12-24T12:31:20;33.07;;;21.80;;
10461;SDS011;5278;42.656;23.374;2022-12-24T12:33:52;36.17;;;22.50;;
10461;SDS011;5278;42.656;23.374;2022-12-24T12:36:24;32.07;;;23.27;;
10461;SDS011;5278;42.656;23.374;2022-12-24T12:38:58;33.80;;;24.33;;
10461;SDS011;5278;42.656;23.374;2022-12-24T12:41:38;33.27;;;22.63;;
10461;SDS011;5278;42.656;23.374;2022-12-24T12:50:28;34.57;;;24.43;;
10461;SDS011;5278;42.656;23.374;2022-12-24T12:53:03;31.87;;;23.73;;
10461;SDS011;5278;42.656;23.374;2022-12-24T12:55:45;30.80;;;23.67;;
10461;SDS011;5278;42.656;23.374;2022-12-24T12:58:22;33.67;;;22.60;;
10461;SDS011;5278;42.656;23.374;2022-12-24T13:00:54;35.80;;;25.17;;
10461;SDS011;5278;42.656;23.374;2022-12-24T13:03:42;39.90;;;24.43;;
10461;SDS011;5278;42.656;23.374;2022-12-24T13:06:29;38.80;;;25.00;;
10461;SDS011;5278;42.656;23.374;2022-12-24T13:09:31;33.40;;;23.73;;
10461;SDS011;5278;42.656;23.374;2022-12-24T13:15:32;36.13;;;23.70;;
10461;SDS011;5278;42.656;23.374;2022-12-24T13:18:18;32.90;;;22.63;;
10461;SDS011;5278;42.656;23.374;2022-12-24T13:21:15;35.10;;;23.17;;
10461;SDS011;5278;42.656;23.374;2022-12-24T13:23:45;32.87;;;23.40;;
10461;SDS011;5278;42.656;23.374;2022-12-24T13:26:13;40.50;;;24.10;;
10461;SDS011;5278;42.656;23.374;2022-12-24T13:28:44;38.27;;;26.77;;
10461;SDS011;5278;42.656;23.374;2022-12-24T13:31:24;37.77;;;26.67;;
10461;SDS011;5278;42.656;23.374;2022-12-24T13:34:01;42.40;;;27.60;;
10461;SDS011;5278;42.656;23.374;2022-12-24T13:42:47;33.27;;;26.00;;
10461;SDS011;5278;42.656;23.374;2022-12-24T13:45:41;40.47;;;27.10;;
10461;SDS011;5278;42.656;23.374;2022-12-24T13:48:17;41.63;;;27.13;;
10461;SDS011;5278;42.656;23.374;2022-12-24T13:50:53;44.67;;;28.63;;
10461;SDS011;5278;42.656;23.374;2022-12-24T13:53:22;42.80;;;28.13;;
10461;SDS011;5278;42.656;23.374;2022-12-24T13:55:54;38.77;;;28.33;;
10461;SDS011;5278;42.656;23.374;2022-12-24T13:58:22;42.13;;;28.20;;
10461;SDS011;5278;42.656;23.374;2022-12-24T14:00:53;43.00;;;26.87;;
10461;SDS011;5278;42.656;23.374;2022-12-24T14:03:26;43.37;;;27.17;;
10461;SDS011;5278;42.656;23.374;2022-12-24T14:05:57;42.33;;;28.67;;
10461;SDS011;5278;42.656;23.374;2022-12-24T14:08:27;39.27;;;28.57;;
10461;SDS011;5278;42.656;23.374;2022-12-24T14:11:07;43.77;;;28.53;;
10461;SDS011;5278;42.656;23.374;2022-12-24T14:13:50;40.40;;;28.43;;
10461;SDS011;5278;42.656;23.374;2022-12-24T14:16:40;41.47;;;27.60;;
10461;SDS011;5278;42.656;23.374;2022-12-24T14:19:09;50.70;;;28.67;;
10461;SDS011;5278;42.656;23.374;2022-12-24T14:21:41;45.20;;;28.97;;
10461;SDS011;5278;42.656;23.374;2022-12-24T14:24:14;41.17;;;28.47;;
10461;SDS011;5278;42.656;23.374;2022-12-24T14:26:46;41.07;;;28.97;;
10461;SDS011;5278;42.656;23.374;2022-12-24T14:29:16;40.30;;;28.73;;
10461;SDS011;5278;42.656;23.374;2022-12-24T14:31:52;43.67;;;29.23;;
10461;SDS011;5278;42.656;23.374;2022-12-24T14:34:19;43.40;;;28.00;;
10461;SDS011;5278;42.656;23.374;2022-12-24T14:36:47;41.30;;;28.93;;
10461;SDS011;5278;42.656;23.374;2022-12-24T14:39:19;43.80;;;29.20;;
10461;SDS011;5278;42.656;23.374;2022-12-24T14:41:52;43.90;;;30.70;;
10461;SDS011;5278;42.656;23.374;2022-12-24T14:44:29;53.07;;;29.90;;
10461;SDS011;5278;42.656;23.374;2022-12-24T14:47:11;40.60;;;28.90;;
10461;SDS011;5278;42.656;23.374;2022-12-24T14:49:51;44.67;;;29.27;;
10461;SDS011;5278;42.656;23.374;2022-12-24T14:52:31;44.70;;;31.60;;
10461;SDS011;5278;42.656;23.374;2022-12-24T15:00:47;47.60;;;30.23;;
10461;SDS011;5278;42.656;23.374;2022-12-24T15:03:16;44.20;;;28.57;;
10461;SDS011;5278;42.656;23.374;2022-12-24T15:05:44;38.10;;;27.63;;
10461;SDS011;5278;42.656;23.374;2022-12-24T15:08:20;36.70;;;26.00;;
10461;SDS011;5278;42.656;23.374;2022-12-24T15:10:55;33.03;;;23.43;;
10461;SDS011;5278;42.656;23.374;2022-12-24T15:13:27;33.43;;;22.67;;